createdAt,value
2023-05-20T00:02:09.388Z,15.46
2023-05-20T00:04:35.838Z,15.42
2023-05-20T00:07:02.244Z,15.48
2023-05-20T00:09:29.579Z,15.36
2023-05-20T00:11:55.995Z,15.34
2023-05-20T00:14:22.336Z,15.36
2023-05-20T00:16:48.859Z,15.34
2023-05-20T00:19:15.370Z,15.38
2023-05-20T00:21:41.781Z,15.38
2023-05-20T00:24:08.135Z,15.29
2023-05-20T00:26:34.559Z,15.26
2023-05-20T00:29:01.135Z,15.14
2023-05-20T00:31:27.516Z,15.13
2023-05-20T00:33:53.987Z,15.23
2023-05-20T00:36:20.585Z,15.17
2023-05-20T00:38:47.063Z,15.11
2023-05-20T00:41:13.456Z,15.04
2023-05-20T00:43:39.810Z,15.08
2023-05-20T00:46:06.240Z,15.14
2023-05-20T00:48:42.928Z,15.09
2023-05-20T00:51:11.341Z,15.12
2023-05-20T00:53:38.418Z,14.97
2023-05-20T00:56:05.611Z,14.91
2023-05-20T00:58:32.348Z,14.85
2023-05-20T01:00:58.710Z,14.65
2023-05-20T01:03:25.449Z,14.60
2023-05-20T01:05:52.006Z,14.46
2023-05-20T01:08:19.013Z,14.34
2023-05-20T01:10:47.625Z,14.34
2023-05-20T01:13:19.068Z,14.17
2023-05-20T01:15:48.507Z,14.04
2023-05-20T01:18:18.296Z,13.88
2023-05-20T01:20:48.615Z,13.87
2023-05-20T01:23:15.584Z,13.76
2023-05-20T01:25:42.426Z,13.80
2023-05-20T01:28:09.515Z,13.87
2023-05-20T01:30:40.871Z,13.84
2023-05-20T01:33:11.330Z,13.66
2023-05-20T01:35:41.354Z,13.63
2023-05-20T01:38:08.295Z,13.56
2023-05-20T01:40:34.912Z,13.57
2023-05-20T01:43:03.182Z,13.52
2023-05-20T01:45:29.607Z,13.54
2023-05-20T01:47:56.072Z,13.51
2023-05-20T01:50:22.573Z,13.42
2023-05-20T01:52:48.972Z,13.34
2023-05-20T01:55:15.460Z,13.27
2023-05-20T01:57:41.809Z,13.07
2023-05-20T02:00:09.634Z,12.92
2023-05-20T02:02:36.418Z,12.91
2023-05-20T02:05:02.949Z,12.74
2023-05-20T02:07:29.278Z,12.71
2023-05-20T02:09:55.708Z,12.63
2023-05-20T02:12:22.065Z,12.47
2023-05-20T02:14:50.285Z,12.30
2023-05-20T02:17:17.675Z,12.24
2023-05-20T02:19:45.785Z,12.15
2023-05-20T02:22:12.358Z,11.93
2023-05-20T02:24:38.999Z,11.82
2023-05-20T02:27:06.278Z,11.91
2023-05-20T02:29:32.757Z,11.96
2023-05-20T02:31:59.199Z,12.14
2023-05-20T02:34:30.121Z,12.29
2023-05-20T02:36:56.843Z,12.40
2023-05-20T02:39:23.232Z,12.35
2023-05-20T02:41:49.621Z,12.54
2023-05-20T02:44:16.848Z,12.65
2023-05-20T02:46:43.410Z,12.72
2023-05-20T02:49:09.750Z,12.65
2023-05-20T02:51:36.873Z,12.70
2023-05-20T02:54:03.703Z,12.73
2023-05-20T02:56:30.100Z,12.83
2023-05-20T02:58:56.628Z,12.89
2023-05-20T03:01:23.380Z,13.04
2023-05-20T03:03:49.811Z,13.11
2023-05-20T03:06:16.361Z,13.12
2023-05-20T03:08:42.857Z,13.21
2023-05-20T03:11:09.267Z,13.28
2023-05-20T03:13:35.634Z,13.29
2023-05-20T03:16:02.365Z,13.32
2023-05-20T03:18:28.943Z,13.30
2023-05-20T03:20:55.287Z,13.20
2023-05-20T03:23:21.646Z,13.27
2023-05-20T03:25:48.345Z,13.29
2023-05-20T03:28:14.677Z,13.28
2023-05-20T03:30:41.029Z,13.29
2023-05-20T03:33:07.553Z,13.38
2023-05-20T03:35:34.007Z,13.41
2023-05-20T03:38:01.711Z,13.41
2023-05-20T03:40:28.167Z,13.41
2023-05-20T03:42:54.603Z,13.48
2023-05-20T03:45:20.966Z,13.52
2023-05-20T03:47:47.374Z,13.53
2023-05-20T03:50:13.812Z,13.53
2023-05-20T03:52:40.911Z,13.55
2023-05-20T03:55:07.962Z,13.51
2023-05-20T03:57:34.407Z,13.55
2023-05-20T04:00:02.216Z,13.55
2023-05-20T04:02:28.779Z,13.61
2023-05-20T04:04:57.579Z,13.67
2023-05-20T04:07:23.992Z,13.62
2023-05-20T04:09:50.483Z,13.62
2023-05-20T04:12:19.313Z,13.57
2023-05-20T04:14:45.689Z,13.58
2023-05-20T04:17:12.008Z,13.62
2023-05-20T04:19:38.385Z,13.61
2023-05-20T04:22:05.005Z,13.67
2023-05-20T04:24:31.422Z,13.65
2023-05-20T04:26:57.799Z,13.70
2023-05-20T04:29:24.268Z,13.71
2023-05-20T04:31:50.658Z,13.73
2023-05-20T04:34:20.216Z,13.72
2023-05-20T04:36:47.077Z,13.74
2023-05-20T04:39:13.843Z,13.80
2023-05-20T04:41:42.654Z,13.81
2023-05-20T04:44:09.478Z,13.84
2023-05-20T04:46:35.949Z,13.84
2023-05-20T04:49:04.424Z,13.91
2023-05-20T04:51:31.253Z,13.94
2023-05-20T04:53:58.857Z,13.98
2023-05-20T04:56:26.059Z,14.05
2023-05-20T04:58:52.691Z,14.13
2023-05-20T05:01:19.365Z,14.14
2023-05-20T05:03:45.916Z,14.23
2023-05-20T05:06:12.257Z,14.27
2023-05-20T05:08:38.633Z,14.32
2023-05-20T05:11:06.740Z,14.36
2023-05-20T05:13:33.107Z,14.37
2023-05-20T05:16:00.811Z,14.47
2023-05-20T05:18:27.477Z,14.62
2023-05-20T05:21:01.683Z,14.63
2023-05-20T05:23:28.127Z,14.70
2023-05-20T05:25:54.598Z,14.72
2023-05-20T05:28:20.992Z,14.66
2023-05-20T05:30:47.351Z,14.69
2023-05-20T05:33:17.678Z,14.73
2023-05-20T05:35:44.121Z,14.74
2023-05-20T05:38:10.515Z,14.70
2023-05-20T05:40:37.169Z,14.72
2023-05-20T05:43:05.686Z,14.76
2023-05-20T05:45:32.219Z,14.86
2023-05-20T05:47:58.770Z,14.98
2023-05-20T05:50:25.242Z,15.13
2023-05-20T05:52:51.633Z,15.26
2023-05-20T05:55:18.363Z,15.46
2023-05-20T05:57:44.984Z,15.59
2023-05-20T06:00:11.957Z,15.60
2023-05-20T06:02:38.376Z,15.71
2023-05-20T06:05:05.680Z,15.78
2023-05-20T06:07:32.025Z,15.90
2023-05-20T06:09:58.698Z,15.95
2023-05-20T06:12:25.082Z,16.01
2023-05-20T06:14:51.476Z,16.10
2023-05-20T06:17:17.888Z,16.15
2023-05-20T06:19:44.271Z,16.42
2023-05-20T06:22:10.596Z,16.63
2023-05-20T06:24:36.987Z,16.89
2023-05-20T06:27:03.405Z,16.97
2023-05-20T06:29:29.929Z,17.15
2023-05-20T06:31:56.647Z,17.36
2023-05-20T06:34:23.024Z,17.70
2023-05-20T06:36:49.374Z,18.11
2023-05-20T06:39:15.849Z,18.53
2023-05-20T06:41:42.281Z,18.82
2023-05-20T06:44:08.690Z,18.84
2023-05-20T06:46:35.151Z,18.69
2023-05-20T06:49:01.577Z,18.42
2023-05-20T06:51:28.384Z,18.67
2023-05-20T06:53:54.767Z,18.87
2023-05-20T06:56:21.543Z,19.25
2023-05-20T06:58:48.150Z,20.07
2023-05-20T07:01:17.285Z,22.14
2023-05-20T07:03:44.594Z,23.26
2023-05-20T07:06:11.048Z,23.43
2023-05-20T07:08:37.443Z,23.75
2023-05-20T07:11:03.908Z,23.14
2023-05-20T07:13:31.138Z,24.32
2023-05-20T07:15:57.517Z,23.26
2023-05-20T07:18:23.979Z,23.51
2023-05-20T07:20:50.301Z,23.61
2023-05-20T07:23:16.690Z,22.75
2023-05-20T07:25:43.081Z,22.09
2023-05-20T07:28:09.529Z,21.20
2023-05-20T07:30:35.969Z,21.73
2023-05-20T07:33:02.445Z,22.10
2023-05-20T07:35:28.924Z,21.02
2023-05-20T07:37:55.870Z,20.76
2023-05-20T07:40:22.211Z,20.90
2023-05-20T07:42:48.546Z,20.38
2023-05-20T07:45:14.984Z,20.23
2023-05-20T07:47:41.378Z,19.22
2023-05-20T07:50:09.089Z,18.79
2023-05-20T07:52:41.150Z,18.80
2023-05-20T07:55:14.520Z,18.80
2023-05-20T07:57:41.644Z,18.94
2023-05-20T08:00:10.029Z,18.92
2023-05-20T08:02:36.465Z,19.14
2023-05-20T08:05:03.102Z,19.16
2023-05-20T08:07:29.570Z,19.25
2023-05-20T08:09:55.886Z,19.49
2023-05-20T08:12:22.281Z,19.44
2023-05-20T08:14:48.595Z,19.08
2023-05-20T08:17:15.278Z,19.08
2023-05-20T08:19:41.644Z,18.94
2023-05-20T08:22:08.666Z,19.37
2023-05-20T08:24:35.014Z,19.65
2023-05-20T08:27:01.448Z,19.69
2023-05-20T08:29:27.811Z,19.51
2023-05-20T08:31:54.153Z,20.17
2023-05-20T08:34:20.876Z,20.80
2023-05-20T08:36:47.286Z,20.83
2023-05-20T08:39:13.666Z,21.05
2023-05-20T08:41:40.037Z,20.82
2023-05-20T08:44:09.686Z,20.98
2023-05-20T08:46:37.711Z,20.92
2023-05-20T08:49:04.244Z,21.07
2023-05-20T08:51:33.523Z,20.97
2023-05-20T08:54:00.154Z,20.17
2023-05-20T08:56:30.058Z,20.20
2023-05-20T08:58:57.318Z,20.49
2023-05-20T09:01:25.970Z,20.27
2023-05-20T09:03:52.973Z,19.72
2023-05-20T09:06:22.129Z,19.86
2023-05-20T09:08:52.571Z,20.11
2023-05-20T09:11:21.640Z,20.40
2023-05-20T09:13:48.053Z,20.48
2023-05-20T09:16:14.640Z,20.22
2023-05-20T09:18:41.542Z,19.93
2023-05-20T09:21:09.947Z,20.24
2023-05-20T09:23:39.214Z,20.62
2023-05-20T09:26:05.689Z,20.79
2023-05-20T09:28:32.102Z,20.58
2023-05-20T09:31:02.046Z,20.60
2023-05-20T09:33:32.116Z,20.97
2023-05-20T09:36:07.657Z,21.37
2023-05-20T09:38:38.821Z,21.57
2023-05-20T09:41:11.956Z,22.18
2023-05-20T09:43:40.146Z,22.63
2023-05-20T09:46:08.199Z,22.68
2023-05-20T09:48:38.162Z,22.64
2023-05-20T09:51:05.915Z,22.24
2023-05-20T09:53:32.535Z,22.18
2023-05-20T09:55:59.117Z,21.63
2023-05-20T09:58:25.952Z,22.03
2023-05-20T10:00:53.921Z,21.51
2023-05-20T10:03:24.212Z,22.02
2023-05-20T10:06:11.740Z,22.07
2023-05-20T10:09:02.586Z,22.50
2023-05-20T10:12:05.069Z,22.51
2023-05-20T10:15:06.987Z,21.99
2023-05-20T10:18:13.897Z,21.64
2023-05-20T10:20:47.822Z,22.04
2023-05-20T10:23:24.261Z,21.74
2023-05-20T10:25:55.297Z,21.85
2023-05-20T10:28:29.686Z,21.64
2023-05-20T10:30:56.554Z,21.38
2023-05-20T10:33:22.966Z,21.36
2023-05-20T10:35:53.455Z,21.19
2023-05-20T10:38:21.246Z,21.24
2023-05-20T10:40:47.808Z,21.34
2023-05-20T10:43:26.924Z,21.43
2023-05-20T10:45:58.111Z,21.42
2023-05-20T10:48:26.152Z,21.97
2023-05-20T10:50:57.844Z,21.93
2023-05-20T10:53:33.359Z,22.00
2023-05-20T10:56:00.680Z,21.94
2023-05-20T10:58:27.114Z,21.85
2023-05-20T11:00:55.255Z,21.78
2023-05-20T11:03:22.477Z,21.67
2023-05-20T11:05:50.124Z,21.53
2023-05-20T11:08:27.659Z,21.65
2023-05-20T11:10:59.211Z,21.55
2023-05-20T11:13:28.150Z,21.65
2023-05-20T11:15:55.764Z,21.69
2023-05-20T11:18:22.289Z,22.08
2023-05-20T11:20:48.867Z,21.72
2023-05-20T11:23:15.443Z,21.62
2023-05-20T11:25:42.089Z,21.54
2023-05-20T11:28:12.894Z,21.82
2023-05-20T11:30:39.731Z,21.84
2023-05-20T11:33:06.147Z,22.35
2023-05-20T11:35:33.238Z,22.67
2023-05-20T11:38:09.006Z,23.27
2023-05-20T11:40:42.721Z,23.18
2023-05-20T11:43:15.907Z,23.72
2023-05-20T11:45:44.476Z,23.77
2023-05-20T11:48:12.430Z,23.73
2023-05-20T11:50:41.144Z,24.15
2023-05-20T11:53:09.585Z,24.29
2023-05-20T11:55:51.049Z,23.97
2023-05-20T11:58:30.694Z,23.91
2023-05-20T12:01:05.766Z,23.77
2023-05-20T12:03:36.527Z,24.29
2023-05-20T12:06:03.586Z,25.07
2023-05-20T12:08:29.989Z,25.20
2023-05-20T12:10:56.521Z,25.30
2023-05-20T12:13:23.725Z,24.65
2023-05-20T12:15:50.315Z,24.47
2023-05-20T12:18:16.687Z,24.21
2023-05-20T12:20:43.078Z,23.83
2023-05-20T12:23:09.430Z,23.79
2023-05-20T12:25:35.825Z,23.80
2023-05-20T12:28:02.333Z,23.99
2023-05-20T12:30:28.689Z,24.54
2023-05-20T12:32:55.080Z,24.21
2023-05-20T12:35:26.055Z,23.43
2023-05-20T12:37:52.857Z,23.04
2023-05-20T12:40:19.280Z,22.89
2023-05-20T12:42:45.684Z,23.04
2023-05-20T12:45:13.332Z,22.83
2023-05-20T12:47:39.798Z,22.51
2023-05-20T12:50:06.992Z,22.44
2023-05-20T12:52:33.368Z,22.02
2023-05-20T12:54:59.694Z,21.93
2023-05-20T12:57:26.415Z,22.32
2023-05-20T12:59:52.961Z,22.89
2023-05-20T13:02:19.516Z,23.55
2023-05-20T13:04:46.112Z,23.75
2023-05-20T13:07:12.521Z,24.36
2023-05-20T13:09:38.893Z,23.97
2023-05-20T13:12:05.627Z,23.63
2023-05-20T13:14:32.040Z,23.40
2023-05-20T13:16:58.562Z,23.18
2023-05-20T13:19:25.197Z,23.51
2023-05-20T13:21:54.480Z,23.67
2023-05-20T13:24:21.361Z,23.90
2023-05-20T13:26:47.912Z,23.57
2023-05-20T13:29:14.385Z,22.58
2023-05-20T13:31:40.720Z,22.43
2023-05-20T13:34:07.173Z,22.15
2023-05-20T13:36:33.909Z,22.39
2023-05-20T13:39:00.638Z,22.40
2023-05-20T13:41:27.543Z,22.44
2023-05-20T13:43:53.945Z,21.94
2023-05-20T13:46:20.502Z,21.89
2023-05-20T13:48:46.958Z,21.88
2023-05-20T13:51:13.562Z,21.67
2023-05-20T13:53:40.357Z,21.64
2023-05-20T13:56:09.221Z,21.52
2023-05-20T13:58:38.706Z,21.61
2023-05-20T14:01:06.176Z,21.49
2023-05-20T14:03:37.273Z,21.57
2023-05-20T14:06:04.148Z,21.81
2023-05-20T14:08:30.539Z,22.09
2023-05-20T14:10:56.884Z,22.41
2023-05-20T14:13:23.577Z,22.98
2023-05-20T14:15:54.766Z,23.61
2023-05-20T14:18:21.548Z,23.83
2023-05-20T14:20:48.013Z,23.43
2023-05-20T14:23:14.428Z,23.19
2023-05-20T14:25:40.923Z,23.12
2023-05-20T14:28:07.339Z,22.77
2023-05-20T14:30:34.153Z,23.05
2023-05-20T14:33:00.990Z,22.92
2023-05-20T14:35:27.368Z,22.46
2023-05-20T14:37:53.868Z,22.52
2023-05-20T14:40:20.455Z,23.00
2023-05-20T14:42:46.944Z,23.24
2023-05-20T14:45:13.318Z,23.06
2023-05-20T14:47:42.360Z,22.97
2023-05-20T14:50:09.142Z,22.66
2023-05-20T14:52:35.554Z,23.10
2023-05-20T14:55:01.906Z,23.28
2023-05-20T14:57:28.341Z,23.37
2023-05-20T14:59:54.786Z,23.33
2023-05-20T15:02:21.190Z,23.18
2023-05-20T15:04:48.570Z,23.08
2023-05-20T15:07:15.667Z,22.87
2023-05-20T15:09:43.512Z,22.96
2023-05-20T15:12:13.519Z,23.09
2023-05-20T15:14:39.905Z,23.33
2023-05-20T15:17:06.552Z,23.36
2023-05-20T15:19:33.219Z,23.37
2023-05-20T15:22:00.028Z,23.33
2023-05-20T15:24:26.435Z,23.36
2023-05-20T15:26:54.847Z,23.23
2023-05-20T15:29:21.648Z,23.01
2023-05-20T15:31:48.043Z,22.70
2023-05-20T15:34:14.530Z,22.57
2023-05-20T15:36:40.906Z,22.76
2023-05-20T15:39:08.013Z,23.32
2023-05-20T15:41:34.534Z,23.63
2023-05-20T15:44:00.879Z,23.62
2023-05-20T15:46:27.364Z,23.18
2023-05-20T15:48:56.115Z,22.68
2023-05-20T15:51:23.163Z,22.50
2023-05-20T15:53:49.669Z,22.58
2023-05-20T15:56:16.603Z,22.58
2023-05-20T15:58:44.264Z,22.41
2023-05-20T16:01:10.698Z,22.10
2023-05-20T16:03:37.154Z,21.92
2023-05-20T16:06:03.746Z,21.93
2023-05-20T16:08:30.121Z,22.08
2023-05-20T16:10:56.792Z,21.98
2023-05-20T16:13:23.198Z,22.05
2023-05-20T16:15:50.907Z,22.03
2023-05-20T16:18:17.631Z,22.26
2023-05-20T16:20:43.957Z,22.34
2023-05-20T16:23:10.337Z,22.54
2023-05-20T16:25:36.687Z,22.68
2023-05-20T16:28:03.057Z,22.82
2023-05-20T16:30:29.441Z,23.09
2023-05-20T16:32:58.264Z,23.72
2023-05-20T16:35:24.662Z,24.15
2023-05-20T16:37:51.089Z,23.99
2023-05-20T16:40:17.491Z,23.67
2023-05-20T16:42:44.731Z,23.67
2023-05-20T16:45:11.691Z,23.68
2023-05-20T16:47:38.247Z,23.59
2023-05-20T16:50:04.880Z,23.44
2023-05-20T16:52:33.050Z,23.14
2023-05-20T16:55:02.921Z,23.05
2023-05-20T16:57:29.304Z,22.86
2023-05-20T16:59:55.826Z,22.78
2023-05-20T17:02:22.267Z,22.78
2023-05-20T17:04:48.671Z,22.50
2023-05-20T17:07:15.904Z,22.46
2023-05-20T17:09:42.259Z,22.31
2023-05-20T17:12:08.855Z,22.09
2023-05-20T17:14:35.262Z,21.87
2023-05-20T17:17:01.701Z,21.79
2023-05-20T17:19:28.225Z,21.63
2023-05-20T17:21:54.665Z,21.70
2023-05-20T17:24:21.328Z,21.74
2023-05-20T17:26:47.760Z,21.66
2023-05-20T17:29:14.102Z,21.44
2023-05-20T17:31:40.431Z,21.28
2023-05-20T17:34:06.879Z,21.23
2023-05-20T17:36:33.358Z,21.20
2023-05-20T17:38:59.689Z,20.97
2023-05-20T17:41:26.363Z,20.91
2023-05-20T17:43:52.706Z,20.85
2023-05-20T17:46:19.126Z,20.72
2023-05-20T17:48:45.661Z,20.70
2023-05-20T17:51:12.097Z,20.67
2023-05-20T17:53:38.472Z,20.54
2023-05-20T17:56:05.364Z,20.49
2023-05-20T17:58:33.691Z,20.44
2023-05-20T18:01:00.132Z,20.38
2023-05-20T18:03:27.687Z,20.25
2023-05-20T18:05:55.950Z,20.14
2023-05-20T18:08:23.321Z,20.11
2023-05-20T18:10:49.756Z,20.03
2023-05-20T18:13:16.179Z,19.98
2023-05-20T18:15:42.579Z,20.07
2023-05-20T18:18:09.120Z,20.03
2023-05-20T18:20:35.934Z,20.05
2023-05-20T18:23:02.471Z,19.93
2023-05-20T18:25:28.873Z,19.80
2023-05-20T18:27:55.394Z,19.63
2023-05-20T18:30:23.122Z,19.53
2023-05-20T18:32:49.839Z,19.40
2023-05-20T18:35:16.510Z,19.29
2023-05-20T18:37:42.863Z,19.18
2023-05-20T18:40:09.501Z,19.13
2023-05-20T18:42:36.362Z,19.03
2023-05-20T18:45:02.786Z,18.95
2023-05-20T18:47:29.283Z,18.87
2023-05-20T18:49:55.891Z,18.79
2023-05-20T18:52:22.260Z,18.73
2023-05-20T18:54:48.679Z,18.63
2023-05-20T18:57:15.329Z,18.58
2023-05-20T18:59:41.664Z,18.46
2023-05-20T19:02:08.012Z,18.39
2023-05-20T19:04:34.383Z,18.28
2023-05-20T19:07:00.924Z,18.25
2023-05-20T19:09:27.305Z,18.20
2023-05-20T19:11:58.697Z,18.09
2023-05-20T19:14:25.805Z,17.97
2023-05-20T19:16:53.047Z,17.89
2023-05-20T19:19:19.570Z,17.95
2023-05-20T19:21:45.996Z,17.85
2023-05-20T19:24:12.560Z,17.85
2023-05-20T19:26:39.581Z,17.79
2023-05-20T19:29:06.806Z,17.75
2023-05-20T19:31:33.245Z,17.61
2023-05-20T19:33:59.614Z,17.54
2023-05-20T19:36:25.996Z,17.51
2023-05-20T19:38:52.405Z,17.59
2023-05-20T19:41:19.413Z,17.53
2023-05-20T19:43:45.782Z,17.42
2023-05-20T19:46:12.248Z,17.36
2023-05-20T19:48:38.712Z,17.29
2023-05-20T19:51:05.205Z,17.28
2023-05-20T19:53:31.619Z,17.15
2023-05-20T19:55:58.019Z,17.16
2023-05-20T19:58:24.427Z,17.20
2023-05-20T20:00:50.776Z,17.20
2023-05-20T20:03:17.119Z,17.22
2023-05-20T20:05:43.533Z,17.19
2023-05-20T20:08:10.006Z,17.15
2023-05-20T20:10:37.556Z,17.17
2023-05-20T20:13:04.227Z,17.12
2023-05-20T20:15:31.930Z,17.10
2023-05-20T20:17:59.038Z,17.11
2023-05-20T20:20:26.721Z,17.08
2023-05-20T20:22:53.153Z,17.10
2023-05-20T20:25:20.344Z,17.04
2023-05-20T20:27:48.340Z,17.10
2023-05-20T20:30:15.416Z,17.11
2023-05-20T20:32:42.467Z,17.10
2023-05-20T20:35:09.371Z,17.10
2023-05-20T20:37:37.513Z,17.08
2023-05-20T20:40:13.012Z,17.03
2023-05-20T20:42:41.633Z,16.98
2023-05-20T20:45:08.610Z,17.00
2023-05-20T20:47:35.069Z,16.95
2023-05-20T20:50:03.307Z,16.96
2023-05-20T20:52:29.631Z,16.95
2023-05-20T20:54:57.057Z,16.94
2023-05-20T20:57:23.908Z,16.95
2023-05-20T20:59:53.811Z,16.93
2023-05-20T21:02:20.367Z,16.89
2023-05-20T21:04:47.290Z,16.90
2023-05-20T21:07:18.365Z,16.87
2023-05-20T21:09:45.709Z,16.83
2023-05-20T21:12:12.139Z,16.80
2023-05-20T21:14:38.498Z,16.85
2023-05-20T21:17:05.375Z,16.78
2023-05-20T21:19:31.870Z,16.74
2023-05-20T21:21:58.324Z,16.66
2023-05-20T21:24:24.677Z,16.67
2023-05-20T21:26:51.072Z,16.68
2023-05-20T21:29:17.439Z,16.64
2023-05-20T21:31:43.913Z,16.61
2023-05-20T21:34:10.320Z,16.53
2023-05-20T21:36:36.685Z,16.45
2023-05-20T21:39:03.058Z,16.50
2023-05-20T21:41:29.538Z,16.47
2023-05-20T21:43:56.070Z,16.55
2023-05-20T21:46:22.556Z,16.53
2023-05-20T21:48:48.936Z,16.53
2023-05-20T21:51:15.427Z,16.48
2023-05-20T21:53:41.842Z,16.49
2023-05-20T21:56:08.334Z,16.44
2023-05-20T21:58:40.543Z,16.42
2023-05-20T22:01:09.095Z,16.42
2023-05-20T22:03:36.015Z,16.35
2023-05-20T22:06:04.996Z,16.23
2023-05-20T22:08:33.649Z,16.08
2023-05-20T22:11:07.420Z,15.99
2023-05-20T22:13:35.401Z,15.86
2023-05-20T22:16:04.613Z,15.65
2023-05-20T22:18:31.222Z,15.51
2023-05-20T22:21:01.038Z,15.40
2023-05-20T22:23:28.435Z,15.34
2023-05-20T22:25:56.229Z,15.36
2023-05-20T22:28:23.492Z,15.43
2023-05-20T22:30:49.931Z,15.46
2023-05-20T22:33:16.585Z,15.48
2023-05-20T22:35:43.064Z,15.55
2023-05-20T22:38:09.441Z,15.53
2023-05-20T22:40:36.125Z,15.48
2023-05-20T22:43:02.540Z,15.45
2023-05-20T22:45:28.946Z,15.40
2023-05-20T22:47:55.778Z,15.35
2023-05-20T22:50:23.811Z,15.27
2023-05-20T22:52:50.172Z,15.23
2023-05-20T22:55:17.744Z,15.26
2023-05-20T22:57:44.214Z,15.35
2023-05-20T23:00:13.920Z,15.47
2023-05-20T23:02:41.546Z,15.50
2023-05-20T23:05:08.313Z,15.43
2023-05-20T23:07:34.732Z,15.36
2023-05-20T23:10:02.422Z,15.29
2023-05-20T23:12:28.772Z,15.22
2023-05-20T23:14:55.157Z,15.18
2023-05-20T23:17:21.622Z,15.19
2023-05-20T23:19:48.009Z,15.13
2023-05-20T23:22:14.732Z,15.13
2023-05-20T23:24:41.380Z,15.16
2023-05-20T23:27:07.818Z,15.20
2023-05-20T23:29:34.207Z,15.14
2023-05-20T23:32:00.682Z,15.04
2023-05-20T23:34:27.308Z,14.98
2023-05-20T23:36:53.679Z,14.88
2023-05-20T23:39:20.030Z,14.82
2023-05-20T23:41:46.470Z,14.76
2023-05-20T23:44:12.887Z,14.81
2023-05-20T23:46:41.893Z,14.82
2023-05-20T23:49:09.947Z,14.77
2023-05-20T23:51:36.294Z,14.68
2023-05-20T23:54:02.666Z,14.63
2023-05-20T23:56:29.011Z,14.57
2023-05-20T23:58:57.375Z,14.53
